Poling, Indiana
Current Conditions -  °F | °C
As of 10:52 AM on Sunday 25 Jan 2015 (Local Time) from KAXV Reporting Station
Light Snow Light Snow  
Wind Chill: 30°   Ceiling: 1700
Heat Index: 34°   Visibility: 1.5mi
Dew Point: 34°   Wind: 5mph
Humidity: 100%   Direction: 70°ENE
Pressure: 29.75"   Gusts: NA
Location:  40.5419°N, 84.8968°W
Report Text: KAXV 251552Z AUTO 07004KT 1 1/2SM -SN OVC017 01/01 A2975 RMK AO2
Loading
Personal Weather Stations






























Interactive Weather Map New forecast layout! Learn more

10-Day Weather Forecast

Advertisements
Track Severe Weather on mobile